Time;durP1;ratioP1;P1;durP2;ratioP2;P2;SDS_P1;SDS_P2;PMS_P1;PMS_P2;Temp;Humidity;BMP_temperature;BMP_pressure;BME280_temperature;BME280_humidity;BME280_pressure;Samples;Min_cycle;Max_cycle;Signal;HPM_P1;HPM_P2
2022/05/10 00:02:02;;;;;;;;;;;;;;;13.86;85.69;151135.58;1706713;84;20225;-59
2022/05/10 00:04:29;;;;;;;;;;;;;;;13.82;86.14;151125.17;1707175;84;20090;-59
2022/05/10 00:06:56;;;;;;;;;;;;;;;13.75;86.62;151108.25;1717930;83;20433;-59
2022/05/10 00:09:27;;;;;;;;;;;;;;;13.69;86.50;151093.94;1724397;83;20156;-59
2022/05/10 00:11:52;;;;;;;;;;;;;;;13.68;85.88;151090.02;1724126;83;21239;-60
2022/05/10 00:14:19;;;;;;;;;;;;;;;13.68;85.79;151091.34;1724178;82;20482;-60
2022/05/10 00:16:46;;;;;;;;;;;;;;;13.70;84.43;151096.53;1724129;83;20212;-57
2022/05/10 00:19:15;;;;;;;;;;;;;;;13.73;82.95;151104.34;1724521;83;20176;-59
2022/05/10 00:21:42;;;;;;;;;;;;;;;13.74;79.75;151106.94;1724335;83;20422;-59
2022/05/10 00:24:08;;;;;;;;;;;;;;;13.80;78.49;151119.92;1724270;82;21287;-62
2022/05/10 00:26:35;;;;;;;;;;;;;;;13.82;77.80;151125.17;1724477;83;20707;-58
2022/05/10 00:29:02;;;;;;;;;;;;;;;13.84;76.98;151130.38;1724429;83;20211;-58
2022/05/10 00:31:30;;;;;;;;;;;;;;;13.84;76.99;151131.66;1724245;83;20176;-58
2022/05/10 00:33:56;;;;;;;;;;;;;;;13.85;76.56;151132.97;1724411;82;20138;-59
2022/05/10 00:36:23;;;;;;;;;;;;;;;13.84;76.47;151131.66;1724366;83;21190;-59
2022/05/10 00:38:50;;;;;;;;;;;;;;;13.85;76.15;151132.97;1724354;83;20128;-60
2022/05/10 00:41:27;;;;;;;;;;;;;;;13.83;75.72;151127.77;1724414;83;20180;-58
2022/05/10 00:43:59;;;;;;;;;;;;;;;13.82;75.30;151125.17;1702160;83;20409;-58
2022/05/10 00:46:39;;;;;;;;;;;;;;;13.81;74.63;151122.53;1724676;83;20167;-59
2022/05/10 00:49:21;;;;;;;;;;;;;;;13.80;73.83;151119.92;1697499;83;20140;-59
2022/05/10 00:52:04;;;;;;;;;;;;;;;13.78;72.49;151114.72;1723706;83;20188;-58
2022/05/10 00:54:38;;;;;;;;;;;;;;;13.77;71.85;151112.13;1724469;83;20148;-60
2022/05/10 00:57:25;;;;;;;;;;;;;;;13.75;71.26;151109.53;1710168;83;20218;-59
2022/05/10 00:59:58;;;;;;;;;;;;;;;13.73;70.62;151103.06;1723444;83;20172;-60
2022/05/10 01:02:48;;;;;;;;;;;;;;;13.70;70.00;151096.53;1724192;83;21083;-60
2022/05/10 01:05:21;;;;;;;;;;;;;;;13.69;69.44;151092.61;1723933;83;20212;-58
2022/05/10 01:07:56;;;;;;;;;;;;;;;13.67;69.38;151088.75;1709302;82;20513;-59
2022/05/10 01:10:29;;;;;;;;;;;;;;;13.65;68.64;151083.55;1706833;84;20157;-59
2022/05/10 01:13:04;;;;;;;;;;;;;;;13.64;67.44;151079.62;1706427;84;20197;-60
2022/05/10 01:15:31;;;;;;;;;;;;;;;13.61;67.32;151073.14;1706567;83;20765;-60
2022/05/10 01:17:57;;;;;;;;;;;;;;;13.58;67.26;151065.31;1706548;84;20165;-58
2022/05/10 01:20:37;;;;;;;;;;;;;;;13.55;67.55;151057.50;1706594;84;20212;-59
2022/05/10 01:23:27;;;;;;;;;;;;;;;13.52;67.39;151049.72;1706125;84;20193;-59
2022/05/10 01:26:05;;;;;;;;;;;;;;;13.49;66.56;151041.92;1706357;84;20169;-59
2022/05/10 01:28:42;;;;;;;;;;;;;;;13.43;66.44;151028.92;1701682;84;21163;-58
2022/05/10 01:31:12;;;;;;;;;;;;;;;13.39;65.97;151018.48;1706603;84;20144;-58
2022/05/10 01:33:43;;;;;;;;;;;;;;;13.33;66.24;151004.17;1706898;84;20366;-59
2022/05/10 01:36:24;;;;;;;;;;;;;;;13.30;66.07;150995.05;1706713;84;20334;-60
2022/05/10 01:39:11;;;;;;;;;;;;;;;13.26;66.32;150985.97;1698305;84;20215;-60
2022/05/10 01:41:56;;;;;;;;;;;;;;;13.22;66.43;150974.27;1706629;84;21275;-60
2022/05/10 01:44:35;;;;;;;;;;;;;;;13.17;66.92;150962.55;1705525;83;20169;-59
2022/05/10 01:47:17;;;;;;;;;;;;;;;13.15;67.29;150958.67;1706506;84;20210;-60
2022/05/10 01:49:50;;;;;;;;;;;;;;;13.12;67.35;150950.84;1707154;84;20957;-58
2022/05/10 01:52:36;;;;;;;;;;;;;;;13.09;67.66;150943.05;1706712;84;20208;-59
2022/05/10 01:55:09;;;;;;;;;;;;;;;13.09;67.72;150941.77;1706840;84;22211;-59
2022/05/10 01:57:38;;;;;;;;;;;;;;;13.07;68.04;150937.84;1707039;84;20136;-60
2022/05/10 02:00:13;;;;;;;;;;;;;;;13.04;67.75;150930.05;1706751;84;20207;-60
2022/05/10 02:03:01;;;;;;;;;;;;;;;13.04;67.16;150930.05;1706960;84;20166;-60
2022/05/10 02:05:35;;;;;;;;;;;;;;;13.03;66.58;150927.45;1706951;84;20205;-59
2022/05/10 02:08:06;;;;;;;;;;;;;;;13.02;66.19;150926.13;1707231;83;21187;-59
2022/05/10 02:10:37;;;;;;;;;;;;;;;13.02;65.61;150924.86;1682002;84;20142;-61
2022/05/10 02:13:07;;;;;;;;;;;;;;;13.02;65.78;150926.13;1707095;84;20488;-59
2022/05/10 02:15:44;;;;;;;;;;;;;;;13.04;66.18;150930.05;1707183;84;20423;-59
2022/05/10 02:18:23;;;;;;;;;;;;;;;13.03;66.32;150928.73;1706902;84;20160;-59
2022/05/10 02:20:54;;;;;;;;;;;;;;;13.02;66.30;150924.86;1682093;85;21505;-60
2022/05/10 02:23:24;;;;;;;;;;;;;;;13.02;66.20;150924.86;1706334;84;20197;-59
2022/05/10 02:25:57;;;;;;;;;;;;;;;13.00;66.34;150920.94;1706608;84;20438;-60
2022/05/10 02:28:40;;;;;;;;;;;;;;;12.98;66.77;150914.47;1706882;84;20164;-59
2022/05/10 02:31:13;;;;;;;;;;;;;;;12.96;66.93;150909.27;1706505;84;20280;-58
2022/05/10 02:33:43;;;;;;;;;;;;;;;12.95;65.83;150906.67;1706718;84;21182;-60
2022/05/10 02:36:10;;;;;;;;;;;;;;;12.95;65.12;150906.67;1706401;84;20213;-59
2022/05/10 02:38:37;;;;;;;;;;;;;;;12.94;65.13;150904.08;1706916;84;20140;-59
2022/05/10 02:41:07;;;;;;;;;;;;;;;12.93;65.00;150901.44;1706630;84;20125;-58
2022/05/10 02:43:43;;;;;;;;;;;;;;;12.91;64.49;150897.56;1706889;84;20172;-59
2022/05/10 02:46:11;;;;;;;;;;;;;;;12.89;64.05;150893.64;1706750;84;21723;-59
2022/05/10 02:48:39;;;;;;;;;;;;;;;12.88;63.83;150891.03;1706954;84;20248;-60
2022/05/10 02:51:06;;;;;;;;;;;;;;;12.90;64.03;150896.23;1707075;84;20197;-59
2022/05/10 02:53:33;;;;;;;;;;;;;;;12.93;63.54;150901.44;1706847;84;21372;-58
2022/05/10 02:56:02;;;;;;;;;;;;;;;12.95;63.50;150906.67;1706674;84;20180;-60
2022/05/10 02:58:35;;;;;;;;;;;;;;;12.97;63.13;150913.14;1706990;84;20779;-59
2022/05/10 03:01:08;;;;;;;;;;;;;;;13.00;63.02;150919.66;1706315;84;20981;-59
2022/05/10 03:03:35;;;;;;;;;;;;;;;13.01;62.64;150923.53;1707082;84;20178;-59
2022/05/10 03:06:03;;;;;;;;;;;;;;;13.03;61.98;150927.45;1706209;84;21332;-59
2022/05/10 03:08:30;;;;;;;;;;;;;;;13.02;62.15;150926.13;1707028;83;20185;-58
2022/05/10 03:10:57;;;;;;;;;;;;;;;13.05;62.23;150932.66;1706504;84;21252;-58
2022/05/10 03:13:23;;;;;;;;;;;;;;;13.06;62.15;150935.25;1706702;84;20686;-59
2022/05/10 03:15:50;;;;;;;;;;;;;;;13.08;62.53;150940.44;1706497;84;20470;-58
2022/05/10 03:18:17;;;;;;;;;;;;;;;13.12;62.88;150950.84;1706720;84;20206;-59
2022/05/10 03:20:44;;;;;;;;;;;;;;;13.15;62.82;150958.67;1707087;84;20150;-59
2022/05/10 03:23:11;;;;;;;;;;;;;;;13.20;62.48;150969.06;1706727;84;21228;-60
2022/05/10 03:25:38;;;;;;;;;;;;;;;13.23;62.48;150978.14;1706978;84;20414;-60
2022/05/10 03:28:06;;;;;;;;;;;;;;;13.28;61.68;150989.86;1706298;84;20240;-61
2022/05/10 03:30:34;;;;;;;;;;;;;;;13.34;61.23;151005.44;1706863;84;20166;-60
2022/05/10 03:33:00;;;;;;;;;;;;;;;13.39;61.58;151018.48;1706523;84;20216;-59
2022/05/10 03:35:27;;;;;;;;;;;;;;;13.46;61.37;151036.72;1706917;84;21641;-59
2022/05/10 03:37:55;;;;;;;;;;;;;;;13.50;60.29;151044.52;1707113;84;20935;-60
2022/05/10 03:40:22;;;;;;;;;;;;;;;13.54;60.24;151054.91;1706748;84;20148;-58
2022/05/10 03:42:50;;;;;;;;;;;;;;;13.59;60.72;151067.91;1706576;84;20142;-58
2022/05/10 03:45:18;;;;;;;;;;;;;;;13.63;61.83;151077.03;1706432;84;20643;-59
2022/05/10 03:47:46;;;;;;;;;;;;;;;13.70;61.87;151096.53;1706997;84;21061;-59
2022/05/10 03:50:13;;;;;;;;;;;;;;;13.76;60.48;151110.86;1706425;84;20771;-58
2022/05/10 03:52:40;;;;;;;;;;;;;;;13.78;60.74;151116.06;1707021;84;20094;-59
2022/05/10 03:55:10;;;;;;;;;;;;;;;13.79;60.37;151117.33;1706668;84;20160;-59
2022/05/10 03:57:37;;;;;;;;;;;;;;;13.83;60.83;151129.05;1706836;84;20146;-59
2022/05/10 04:00:08;;;;;;;;;;;;;;;13.92;60.07;151149.84;1706360;84;21178;-58
2022/05/10 04:02:38;;;;;;;;;;;;;;;13.95;59.13;151158.97;1706578;83;20459;-58
2022/05/10 04:05:05;;;;;;;;;;;;;;;14.02;58.76;151177.16;1706089;84;20911;-59
2022/05/10 04:07:32;;;;;;;;;;;;;;;14.12;57.99;151200.59;1706499;83;20221;-59
2022/05/10 04:09:59;;;;;;;;;;;;;;;14.16;58.31;151211.00;1705994;84;20228;-58
2022/05/10 04:12:26;;;;;;;;;;;;;;;14.22;57.54;151226.59;1706419;84;21240;-59
2022/05/10 04:14:53;;;;;;;;;;;;;;;14.27;57.57;151238.33;1707235;84;20221;-59
2022/05/10 04:17:21;;;;;;;;;;;;;;;14.29;57.85;151244.84;1707169;84;20232;-59
2022/05/10 04:19:48;;;;;;;;;;;;;;;14.33;57.33;151253.92;1707431;84;20129;-57
2022/05/10 04:22:16;;;;;;;;;;;;;;;14.37;57.31;151263.05;1706756;84;20588;-59
2022/05/10 04:24:43;;;;;;;;;;;;;;;14.40;56.14;151272.17;1707021;84;21211;-60
2022/05/10 04:27:10;;;;;;;;;;;;;;;14.42;55.97;151276.05;1706820;84;20209;-59
2022/05/10 04:29:37;;;;;;;;;;;;;;;14.44;56.55;151281.25;1707225;84;20106;-59
2022/05/10 04:32:04;;;;;;;;;;;;;;;14.49;56.53;151294.30;1706927;84;20125;-60
2022/05/10 04:34:34;;;;;;;;;;;;;;;14.55;57.37;151309.91;1707314;84;20117;-61
2022/05/10 04:37:01;;;;;;;;;;;;;;;14.61;58.33;151325.50;1707362;84;21246;-61
2022/05/10 04:41:24;;;;;;;;;;;;;;;14.67;58.61;151338.50;1707087;84;20181;-60
2022/05/10 04:41:59;;;;;;;;;;;;;;;14.71;58.30;151349.00;1706987;84;20406;-61
2022/05/10 04:44:26;;;;;;;;;;;;;;;14.74;58.14;151358.09;1706909;84;20190;-60
2022/05/10 04:46:53;;;;;;;;;;;;;;;14.74;58.48;151356.81;1706895;84;20175;-60
2022/05/10 04:49:19;;;;;;;;;;;;;;;14.79;58.00;151369.81;1706844;84;21232;-59
2022/05/10 04:51:46;;;;;;;;;;;;;;;14.83;57.08;151380.22;1707283;84;20142;-60
2022/05/10 04:54:13;;;;;;;;;;;;;;;14.82;57.10;151377.62;1706523;84;20430;-60
2022/05/10 04:56:40;;;;;;;;;;;;;;;14.83;57.70;151380.22;1707337;84;20583;-59
2022/05/10 04:59:06;;;;;;;;;;;;;;;14.87;56.60;151389.34;1706977;84;20500;-61
2022/05/10 05:01:33;;;;;;;;;;;;;;;14.89;55.71;151395.83;1707124;84;21021;-60
2022/05/10 05:04:01;;;;;;;;;;;;;;;14.95;54.39;151408.88;1706622;84;20442;-60
2022/05/10 05:06:28;;;;;;;;;;;;;;;14.97;54.60;151415.36;1707083;84;20532;-62
2022/05/10 05:08:55;;;;;;;;;;;;;;;15.03;55.41;151429.69;1707114;82;20456;-59
2022/05/10 05:11:23;;;;;;;;;;;;;;;15.10;55.86;151446.63;1707011;84;20659;-58
2022/05/10 05:13:50;;;;;;;;;;;;;;;15.12;55.84;151451.83;1706824;84;21166;-59
2022/05/10 05:16:17;;;;;;;;;;;;;;;15.14;55.89;151457.03;1706723;84;20421;-59
2022/05/10 05:18:45;;;;;;;;;;;;;;;15.16;55.91;151463.56;1707308;84;20138;-59
2022/05/10 05:21:12;;;;;;;;;;;;;;;15.17;56.26;151466.16;1706919;84;20650;-59
2022/05/10 05:23:39;;;;;;;;;;;;;;;15.23;56.70;151479.16;1706884;84;20180;-60
2022/05/10 05:26:06;;;;;;;;;;;;;;;15.28;56.79;151492.17;1706679;84;21237;-59
2022/05/10 05:28:34;;;;;;;;;;;;;;;15.38;56.60;151516.91;1706995;84;20154;-59
2022/05/10 05:31:00;;;;;;;;;;;;;;;15.43;56.58;151531.25;1706721;84;20189;-59
2022/05/10 05:33:27;;;;;;;;;;;;;;;15.43;56.82;151531.25;1706751;84;20430;-61
2022/05/10 05:35:54;;;;;;;;;;;;;;;15.46;57.05;151539.06;1706863;84;20527;-59
2022/05/10 05:38:24;;;;;;;;;;;;;;;15.54;56.93;151557.27;1706750;84;21372;-59
2022/05/10 05:40:51;;;;;;;;;;;;;;;15.52;56.28;151552.06;1706826;84;20142;-59
2022/05/10 05:43:19;;;;;;;;;;;;;;;15.55;56.74;151559.88;1706575;84;20209;-59
2022/05/10 05:45:46;;;;;;;;;;;;;;;15.59;57.03;151571.61;1707079;84;20329;-57
2022/05/10 05:48:13;;;;;;;;;;;;;;;15.59;57.04;151570.33;1706881;84;20201;-58
2022/05/10 05:50:40;;;;;;;;;;;;;;;15.62;57.10;151578.12;1707034;84;21986;-59
2022/05/10 05:53:07;;;;;;;;;;;;;;;15.68;56.94;151593.75;1706610;84;20161;-60
2022/05/10 05:55:34;;;;;;;;;;;;;;;15.68;56.67;151593.75;1706861;84;20538;-59
2022/05/10 05:58:01;;;;;;;;;;;;;;;15.76;57.03;151614.56;1706990;84;20664;-59
2022/05/10 06:00:29;;;;;;;;;;;;;;;15.88;56.97;151644.58;1706953;84;20237;-59
2022/05/10 06:02:56;;;;;;;;;;;;;;;15.96;57.15;151664.13;1707119;84;21246;-60
2022/05/10 06:05:25;;;;;;;;;;;;;;;16.09;56.34;151695.41;1706901;84;20205;-60
2022/05/10 06:07:53;;;;;;;;;;;;;;;16.18;56.11;151720.16;1706830;83;20181;-58
2022/05/10 06:10:20;;;;;;;;;;;;;;;16.25;56.25;151735.78;1707132;84;20225;-59
2022/05/10 06:12:48;;;;;;;;;;;;;;;16.34;56.32;151759.22;1707061;84;20180;-59
2022/05/10 06:15:16;;;;;;;;;;;;;;;16.48;55.78;151794.44;1706882;84;21208;-58
2022/05/10 06:17:45;;;;;;;;;;;;;;;16.55;55.84;151812.66;1707085;84;20197;-59
2022/05/10 06:20:13;;;;;;;;;;;;;;;16.64;54.79;151833.50;1707097;84;20236;-59
2022/05/10 06:22:44;;;;;;;;;;;;;;;16.65;55.05;151837.42;1707262;84;20146;-58
2022/05/10 06:25:09;;;;;;;;;;;;;;;16.61;55.31;151828.28;1706667;83;20204;-59
2022/05/10 06:27:38;;;;;;;;;;;;;;;16.63;55.71;151830.89;1707416;84;21499;-60
2022/05/10 06:30:05;;;;;;;;;;;;;;;16.70;55.82;151849.17;1703252;82;20180;-58
2022/05/10 06:32:32;;;;;;;;;;;;;;;16.75;56.08;151862.19;1703573;82;20620;-60
2022/05/10 06:35:00;;;;;;;;;;;;;;;16.75;55.82;151862.19;1700363;82;20181;-59
2022/05/10 06:40:14;;;;;;;;;;;;;;;16.73;55.73;151858.25;1693860;82;21284;-60
2022/05/10 06:42:42;;;;;;;;;;;;;;;16.75;55.87;151862.19;1675582;85;20146;-59
2022/05/10 06:45:11;;;;;;;;;;;;;;;16.88;55.37;151896.05;1705742;84;20220;-62
2022/05/10 06:47:39;;;;;;;;;;;;;;;16.97;55.18;151916.94;1706904;84;20117;-59
2022/05/10 06:50:08;;;;;;;;;;;;;;;17.02;54.79;151931.33;1706317;82;20216;-60
2022/05/10 06:52:35;;;;;;;;;;;;;;;17.03;55.02;151932.61;1706772;84;21100;-60
2022/05/10 06:55:01;;;;;;;;;;;;;;;17.06;55.18;151940.42;1701630;82;21340;-60
2022/05/10 06:57:28;;;;;;;;;;;;;;;17.10;55.25;151950.84;1696393;84;20237;-61
2022/05/10 06:59:55;;;;;;;;;;;;;;;17.05;54.74;151937.81;1679689;84;20356;-61
2022/05/10 07:02:23;;;;;;;;;;;;;;;17.00;54.74;151926.06;1679530;84;20509;-59
2022/05/10 07:04:50;;;;;;;;;;;;;;;17.05;55.13;151937.81;1680427;84;21115;-59
2022/05/10 07:07:17;;;;;;;;;;;;;;;17.13;54.88;151958.70;1685993;82;20196;-58
2022/05/10 07:09:46;;;;;;;;;;;;;;;17.20;54.50;151974.33;1707500;83;20147;-59
2022/05/10 07:12:13;;;;;;;;;;;;;;;17.21;54.80;151976.94;1707058;82;20224;-61
2022/05/10 07:14:39;;;;;;;;;;;;;;;17.28;54.15;151995.17;1691004;83;20149;-59
2022/05/10 07:17:06;;;;;;;;;;;;;;;17.28;53.66;151996.50;1685046;84;21119;-59
2022/05/10 07:19:33;;;;;;;;;;;;;;;17.28;53.28;151995.17;1685100;84;20172;-59
2022/05/10 07:22:01;;;;;;;;;;;;;;;17.21;53.86;151976.94;1684465;84;20200;-59
2022/05/10 07:24:28;;;;;;;;;;;;;;;17.20;53.82;151974.33;1684652;85;21369;-58
2022/05/10 07:26:55;;;;;;;;;;;;;;;17.24;54.04;151986.08;1684823;85;20102;-59
2022/05/10 07:29:22;;;;;;;;;;;;;;;17.29;53.51;151999.11;1705548;82;21754;-58
2022/05/10 07:31:49;;;;;;;;;;;;;;;17.28;53.84;151995.17;1688448;84;20188;-60
2022/05/10 07:34:15;;;;;;;;;;;;;;;17.31;53.56;152004.31;1708513;83;20184;-59
2022/05/10 07:36:43;;;;;;;;;;;;;;;17.35;52.46;152013.41;1708763;84;20170;-60
2022/05/10 07:39:11;;;;;;;;;;;;;;;17.41;52.94;152027.77;1707752;82;20145;-61
2022/05/10 07:41:38;;;;;;;;;;;;;;;17.40;53.28;152025.16;1708713;83;21252;-61
2022/05/10 07:44:05;;;;;;;;;;;;;;;17.45;52.78;152039.52;1679456;85;20458;-60
2022/05/10 07:46:32;;;;;;;;;;;;;;;17.44;52.75;152036.91;1680673;84;20216;-59
2022/05/10 07:49:00;;;;;;;;;;;;;;;17.48;52.22;152046.05;1692445;83;20232;-59
2022/05/10 07:51:27;;;;;;;;;;;;;;;17.43;51.78;152034.31;1708718;84;20209;-58
2022/05/10 07:53:55;;;;;;;;;;;;;;;17.32;51.43;152005.59;1708240;83;21767;-62
2022/05/10 07:56:24;;;;;;;;;;;;;;;17.17;51.93;151969.13;1690846;84;20505;-60
2022/05/10 07:58:52;;;;;;;;;;;;;;;17.05;52.44;151937.81;1686530;84;20462;-62
2022/05/10 08:01:19;;;;;;;;;;;;;;;17.03;53.30;151932.61;1684892;83;20153;-60
2022/05/10 08:03:47;;;;;;;;;;;;;;;17.02;52.93;151931.33;1687314;84;20085;-59
2022/05/10 08:06:15;;;;;;;;;;;;;;;16.96;52.84;151914.33;1690810;83;22170;-59
2022/05/10 08:08:49;;;;;;;;;;;;;;;16.97;51.93;151916.94;1711866;82;20305;-61
2022/05/10 08:11:16;;;;;;;;;;;;;;;16.97;50.82;151918.22;1702816;83;20200;-61
2022/05/10 08:13:43;;;;;;;;;;;;;;;16.90;50.68;151901.25;1747494;81;20099;-61
2022/05/10 08:16:10;;;;;;;;;;;;;;;16.82;51.29;151880.42;1754174;81;20727;-61
2022/05/10 08:18:39;;;;;;;;;;;;;;;16.74;52.32;151859.58;1754687;81;21202;-58
2022/05/10 08:21:07;;;;;;;;;;;;;;;16.75;52.33;151862.19;1754690;81;38447;-60
2022/05/10 08:23:35;;;;;;;;;;;;;;;16.85;51.63;151886.95;1729970;81;20176;-58
2022/05/10 08:26:03;;;;;;;;;;;;;;;16.90;51.08;151901.25;1724705;81;20213;-59
2022/05/10 08:28:31;;;;;;;;;;;;;;;16.98;50.06;151919.53;1724394;81;20208;-59
2022/05/10 08:30:58;;;;;;;;;;;;;;;17.02;49.81;151931.33;1724161;81;21132;-59
2022/05/10 08:33:27;;;;;;;;;;;;;;;17.00;49.50;151926.06;1728057;81;20183;-60
2022/05/10 08:35:54;;;;;;;;;;;;;;;17.05;49.66;151937.81;1731657;82;20168;-61
2022/05/10 08:38:24;;;;;;;;;;;;;;;17.10;49.23;151950.84;1727287;81;20570;-59
2022/05/10 08:41:06;;;;;;;;;;;;;;;17.17;49.62;151969.13;1724184;81;20174;-61
2022/05/10 08:43:46;;;;;;;;;;;;;;;17.22;49.52;151979.55;1735980;81;21137;-60
2022/05/10 08:46:18;;;;;;;;;;;;;;;17.33;49.43;152008.20;1728294;81;20172;-60
2022/05/10 08:48:46;;;;;;;;;;;;;;;17.44;48.64;152036.91;1720154;83;20177;-60
2022/05/10 08:51:15;;;;;;;;;;;;;;;17.53;48.28;152059.08;1722347;81;20649;-61
2022/05/10 08:53:43;;;;;;;;;;;;;;;17.58;48.76;152072.11;1725010;81;20141;-59
2022/05/10 08:56:16;;;;;;;;;;;;;;;17.68;48.30;152096.89;1738374;81;21221;-60
2022/05/10 08:58:53;;;;;;;;;;;;;;;17.80;47.58;152125.61;1724524;83;20272;-61
2022/05/10 09:01:26;;;;;;;;;;;;;;;17.93;47.21;152158.20;1724148;81;20208;-58
2022/05/10 09:04:11;;;;;;;;;;;;;;;18.07;47.44;152193.47;1723996;81;20173;-58
2022/05/10 09:06:51;;;;;;;;;;;;;;;18.18;47.17;152222.14;1724279;83;20181;-58
2022/05/10 09:09:27;;;;;;;;;;;;;;;18.21;46.95;152229.97;1723716;82;21236;-59
2022/05/10 09:12:15;;;;;;;;;;;;;;;18.24;46.38;152237.83;1723658;82;20212;-60
2022/05/10 09:14:45;;;;;;;;;;;;;;;18.21;46.09;152229.97;1727374;81;20172;-59
2022/05/10 09:17:13;;;;;;;;;;;;;;;18.22;45.45;152231.28;1722532;81;20215;-59
2022/05/10 09:19:41;;;;;;;;;;;;;;;18.20;44.26;152227.36;1724502;81;20169;-60
2022/05/10 09:22:29;;;;;;;;;;;;;;;18.21;44.20;152229.97;1725964;81;21179;-59
2022/05/10 09:24:56;;;;;;;;;;;;;;;18.18;44.23;152222.14;1732357;82;20199;-59
2022/05/10 09:27:28;;;;;;;;;;;;;;;18.28;43.76;152248.25;1731819;82;20215;-59
2022/05/10 09:29:55;;;;;;;;;;;;;;;18.33;44.28;152259.97;1732131;82;20125;-59
2022/05/10 09:35:23;;;;;;;;;;;;;;;18.50;43.04;152303.06;1724123;83;20908;-58
2022/05/10 09:38:00;;;;;;;;;;;;;;;18.55;43.88;152314.77;1724680;81;20100;-60
2022/05/10 09:40:43;;;;;;;;;;;;;;;18.55;43.00;152316.09;1719883;83;20239;-60
2022/05/10 09:43:32;;;;;;;;;;;;;;;18.59;43.18;152326.52;1704995;83;20622;-60
2022/05/10 09:46:11;;;;;;;;;;;;;;;18.61;42.93;152331.73;1723635;83;20236;-59
2022/05/10 09:48:40;;;;;;;;;;;;;;;18.68;40.59;152347.38;1736989;81;21877;-59
2022/05/10 09:51:30;;;;;;;;;;;;;;;18.72;40.59;152357.86;1725925;81;20249;-60
2022/05/10 09:53:57;;;;;;;;;;;;;;;18.74;39.14;152364.36;1706528;83;20144;-60
2022/05/10 09:56:30;;;;;;;;;;;;;;;18.75;40.49;152365.69;1723314;82;20584;-60
2022/05/10 09:58:58;;;;;;;;;;;;;;;18.78;40.88;152373.50;1723730;82;20116;-58
2022/05/10 10:01:31;;;;;;;;;;;;;;;18.81;41.79;152381.33;1723441;83;21299;-60
2022/05/10 10:04:01;;;;;;;;;;;;;;;18.85;41.40;152391.75;1721726;81;20159;-58
2022/05/10 10:06:30;;;;;;;;;;;;;;;18.87;41.09;152395.69;1709439;82;20239;-58
2022/05/10 10:09:00;;;;;;;;;;;;;;;18.87;40.84;152396.97;1720768;81;20497;-58
2022/05/10 10:11:38;;;;;;;;;;;;;;;18.84;39.28;152389.16;1699262;83;20220;-60
2022/05/10 10:14:06;;;;;;;;;;;;;;;18.81;39.05;152381.33;1698904;82;21277;-59
2022/05/10 10:16:51;;;;;;;;;;;;;;;18.76;38.65;152368.30;1708983;82;20715;-60
2022/05/10 10:19:24;;;;;;;;;;;;;;;18.76;39.47;152368.30;1706689;84;20308;-62
2022/05/10 10:21:54;;;;;;;;;;;;;;;18.75;39.86;152365.69;1704499;82;20142;-61
2022/05/10 10:24:28;;;;;;;;;;;;;;;18.74;39.31;152364.36;1678137;84;20218;-61
2022/05/10 10:26:57;;;;;;;;;;;;;;;18.74;39.38;152364.36;1720380;82;23159;-61
2022/05/10 10:29:36;;;;;;;;;;;;;;;18.74;40.13;152363.08;1697469;82;20646;-60
2022/05/10 10:32:12;;;;;;;;;;;;;;;18.69;37.93;152351.31;1709139;83;20244;-61
2022/05/10 10:34:57;;;;;;;;;;;;;;;18.63;39.45;152334.34;1712990;82;20190;-61
2022/05/10 10:37:28;;;;;;;;;;;;;;;18.57;39.76;152320.03;1688780;83;20201;-60
2022/05/10 10:40:24;;;;;;;;;;;;;;;18.53;40.43;152309.55;1704471;83;21809;-61
2022/05/10 10:43:17;;;;;;;;;;;;;;;18.44;39.54;152288.69;1713389;82;20162;-59
2022/05/10 10:45:49;;;;;;;;;;;;;;;18.42;39.11;152282.16;1713607;82;20145;-59
2022/05/10 10:48:28;;;;;;;;;;;;;;;18.39;38.17;152275.66;1702414;82;20510;-59
2022/05/10 10:50:55;;;;;;;;;;;;;;;18.45;39.79;152289.97;1699599;83;20220;-60
2022/05/10 10:53:24;;;;;;;;;;;;;;;18.49;41.86;152299.12;1691136;82;21303;-61
2022/05/10 10:55:57;;;;;;;;;;;;;;;18.48;41.39;152297.84;1705217;83;20187;-59
2022/05/10 10:58:31;;;;;;;;;;;;;;;18.42;41.62;152282.16;1714516;82;20229;-59
2022/05/10 11:01:04;;;;;;;;;;;;;;;18.32;41.12;152258.69;1715142;83;20110;-61
2022/05/10 11:03:58;;;;;;;;;;;;;;;18.24;38.94;152236.50;1715033;82;20303;-60
2022/05/10 11:06:27;;;;;;;;;;;;;;;18.16;36.77;152216.92;1713721;83;20189;-60
2022/05/10 11:09:03;;;;;;;;;;;;;;;18.08;37.01;152196.08;1714305;82;20141;-61
2022/05/10 11:11:37;;;;;;;;;;;;;;;18.03;38.50;152185.66;1714264;82;20209;-62
2022/05/10 11:14:10;;;;;;;;;;;;;;;18.03;38.64;152185.66;1713869;82;20152;-59
2022/05/10 11:16:46;;;;;;;;;;;;;;;18.02;37.32;152183.03;1713984;83;20238;-61
2022/05/10 11:19:52;;;;;;;;;;;;;;;18.02;37.36;152183.03;1716185;83;21221;-61
2022/05/10 11:22:41;;;;;;;;;;;;;;;18.00;36.73;152177.73;1711668;83;20220;-61
2022/05/10 11:25:14;;;;;;;;;;;;;;;17.94;35.57;152162.09;1708284;83;20194;-61
2022/05/10 11:28:02;;;;;;;;;;;;;;;17.88;36.57;152146.45;1715899;83;20171;-61
2022/05/10 11:30:57;;;;;;;;;;;;;;;17.90;36.75;152151.67;1708286;83;20225;-59
2022/05/10 11:34:00;;;;;;;;;;;;;;;17.90;36.38;152151.67;1713836;83;21223;-60
2022/05/10 11:36:44;;;;;;;;;;;;;;;17.87;34.93;152143.84;1714414;83;20109;-60
2022/05/10 11:39:50;;;;;;;;;;;;;;;17.84;35.82;152136.03;1715713;83;20189;-58
2022/05/10 11:42:32;;;;;;;;;;;;;;;17.85;34.46;152138.64;1714466;82;20449;-60
2022/05/10 11:45:19;;;;;;;;;;;;;;;17.86;33.34;152141.25;1714337;82;20430;-60
2022/05/10 11:47:53;;;;;;;;;;;;;;;17.85;34.04;152138.64;1685666;85;21291;-59
2022/05/10 11:51:38;;;;;;;;;;;;;;;17.88;35.67;152146.45;1685559;85;20190;-59
2022/05/10 11:53:17;;;;;;;;;;;;;;;17.92;36.00;152156.88;1687046;82;20173;-60
2022/05/10 11:56:00;;;;;;;;;;;;;;;17.97;35.58;152168.63;1714476;82;20138;-59
2022/05/10 11:58:28;;;;;;;;;;;;;;;17.99;34.97;152175.13;1714438;83;20213;-58
2022/05/10 12:00:56;;;;;;;;;;;;;;;18.03;33.74;152184.31;1714057;82;21290;-58
2022/05/10 12:03:45;;;;;;;;;;;;;;;18.07;33.57;152193.47;1714460;83;20186;-57
2022/05/10 12:06:28;;;;;;;;;;;;;;;18.09;33.28;152199.95;1715829;82;20148;-59
2022/05/10 12:09:03;;;;;;;;;;;;;;;18.11;32.38;152203.89;1707932;82;20146;-58
2022/05/10 12:11:37;;;;;;;;;;;;;;;18.12;32.08;152206.50;1687624;83;20214;-60
2022/05/10 12:22:52;;;;;;;;;;;;;;;18.09;30.18;152198.69;1733680;81;20176;-60
2022/05/10 12:25:57;;;;;;;;;;;;;;;18.02;29.95;152183.03;1725213;83;20493;-59
2022/05/10 12:28:47;;;;;;;;;;;;;;;17.98;29.74;152172.52;1726561;83;21153;-59
2022/05/10 12:31:33;;;;;;;;;;;;;;;17.96;29.83;152166.03;1736908;81;20464;-59
2022/05/10 12:34:06;;;;;;;;;;;;;;;17.94;29.68;152162.09;1715087;81;20145;-59
2022/05/10 12:36:35;;;;;;;;;;;;;;;17.93;29.82;152159.48;1735202;81;20198;-60
2022/05/10 12:39:24;;;;;;;;;;;;;;;17.93;29.93;152159.48;1726868;83;20101;-60
2022/05/10 12:42:00;;;;;;;;;;;;;;;17.93;30.28;152158.20;1722896;81;21151;-63
2022/05/10 12:44:39;;;;;;;;;;;;;;;17.93;30.92;152159.48;1700347;82;20176;-59
2022/05/10 12:47:33;;;;;;;;;;;;;;;17.94;30.82;152160.81;1732919;81;20159;-59
2022/05/10 12:50:26;;;;;;;;;;;;;;;17.92;30.35;152156.88;1727790;81;20191;-63
2022/05/10 12:52:54;;;;;;;;;;;;;;;17.94;30.23;152160.81;1689178;81;20165;-62
2022/05/10 12:55:23;;;;;;;;;;;;;;;17.90;30.18;152151.67;1727427;81;21350;-61
2022/05/10 12:58:06;;;;;;;;;;;;;;;17.88;30.15;152147.73;1733814;81;20145;-61
2022/05/10 13:00:44;;;;;;;;;;;;;;;17.88;30.27;152146.45;1742360;81;20148;-61
2022/05/10 13:03:14;;;;;;;;;;;;;;;17.87;30.58;152143.84;1727131;81;20619;-61
2022/05/10 13:06:22;;;;;;;;;;;;;;;17.89;30.65;152149.06;1727453;81;20187;-61
2022/05/10 13:09:01;;;;;;;;;;;;;;;17.90;30.92;152153.00;1727521;83;21867;-61
2022/05/10 13:11:31;;;;;;;;;;;;;;;17.97;31.25;152169.91;1717935;82;20168;-57
2022/05/10 13:13:59;;;;;;;;;;;;;;;18.03;30.98;152185.66;1716377;81;20428;-58
2022/05/10 13:16:28;;;;;;;;;;;;;;;18.06;30.93;152190.86;1734392;82;20462;-58